sensor_id;sensor_type;location;lat;lon;timestamp;P1;durP1;ratioP1;P2;durP2;ratioP2
54821;SDS011;41299;43.546;16.426;2022-09-17T00:00:45;10.43;;;3.88;;
54821;SDS011;41299;43.546;16.426;2022-09-17T00:03:12;9.38;;;4.57;;
54821;SDS011;41299;43.546;16.426;2022-09-17T00:05:38;9.15;;;4.65;;
54821;SDS011;41299;43.546;16.426;2022-09-17T00:08:04;13.45;;;6.15;;
54821;SDS011;41299;43.546;16.426;2022-09-17T00:10:31;9.45;;;5.43;;
54821;SDS011;41299;43.546;16.426;2022-09-17T00:12:57;10.48;;;5.05;;
54821;SDS011;41299;43.546;16.426;2022-09-17T00:15:23;9.10;;;4.72;;
54821;SDS011;41299;43.546;16.426;2022-09-17T00:17:52;8.23;;;4.78;;
54821;SDS011;41299;43.546;16.426;2022-09-17T00:20:22;8.38;;;4.82;;
54821;SDS011;41299;43.546;16.426;2022-09-17T00:22:49;11.05;;;5.90;;
54821;SDS011;41299;43.546;16.426;2022-09-17T00:25:14;10.13;;;5.80;;
54821;SDS011;41299;43.546;16.426;2022-09-17T00:27:40;10.15;;;6.05;;
54821;SDS011;41299;43.546;16.426;2022-09-17T00:30:06;13.10;;;5.82;;
54821;SDS011;41299;43.546;16.426;2022-09-17T00:32:32;8.38;;;5.30;;
54821;SDS011;41299;43.546;16.426;2022-09-17T00:34:57;8.50;;;5.05;;
54821;SDS011;41299;43.546;16.426;2022-09-17T00:37:23;8.48;;;5.13;;
54821;SDS011;41299;43.546;16.426;2022-09-17T00:39:48;7.00;;;4.55;;
54821;SDS011;41299;43.546;16.426;2022-09-17T00:42:14;10.85;;;5.10;;
54821;SDS011;41299;43.546;16.426;2022-09-17T00:49:45;7.72;;;5.00;;
54821;SDS011;41299;43.546;16.426;2022-09-17T00:52:14;10.10;;;5.00;;
54821;SDS011;41299;43.546;16.426;2022-09-17T00:54:44;6.85;;;4.97;;
54821;SDS011;41299;43.546;16.426;2022-09-17T00:57:15;7.03;;;4.82;;
54821;SDS011;41299;43.546;16.426;2022-09-17T00:59:41;9.57;;;5.20;;
54821;SDS011;41299;43.546;16.426;2022-09-17T01:02:07;11.32;;;5.88;;
54821;SDS011;41299;43.546;16.426;2022-09-17T01:04:32;10.68;;;5.35;;
54821;SDS011;41299;43.546;16.426;2022-09-17T01:07:13;7.60;;;5.35;;
54821;SDS011;41299;43.546;16.426;2022-09-17T01:20:54;10.82;;;4.80;;
54821;SDS011;41299;43.546;16.426;2022-09-17T01:34:40;8.40;;;5.75;;
54821;SDS011;41299;43.546;16.426;2022-09-17T01:45:26;12.05;;;5.20;;
54821;SDS011;41299;43.546;16.426;2022-09-17T01:48:03;9.00;;;5.07;;
54821;SDS011;41299;43.546;16.426;2022-09-17T01:50:36;15.32;;;4.70;;
54821;SDS011;41299;43.546;16.426;2022-09-17T01:53:07;9.57;;;4.40;;
54821;SDS011;41299;43.546;16.426;2022-09-17T01:55:36;9.35;;;4.72;;
54821;SDS011;41299;43.546;16.426;2022-09-17T02:00:30;9.95;;;4.72;;
54821;SDS011;41299;43.546;16.426;2022-09-17T02:02:58;10.35;;;5.18;;
54821;SDS011;41299;43.546;16.426;2022-09-17T02:08:28;8.63;;;5.00;;
54821;SDS011;41299;43.546;16.426;2022-09-17T02:11:08;12.75;;;4.95;;
54821;SDS011;41299;43.546;16.426;2022-09-17T02:21:45;10.25;;;5.57;;
54821;SDS011;41299;43.546;16.426;2022-09-17T02:24:19;11.77;;;5.28;;
54821;SDS011;41299;43.546;16.426;2022-09-17T02:27:00;12.32;;;5.38;;
54821;SDS011;41299;43.546;16.426;2022-09-17T02:29:31;9.25;;;5.30;;
54821;SDS011;41299;43.546;16.426;2022-09-17T02:31:59;11.20;;;4.63;;
54821;SDS011;41299;43.546;16.426;2022-09-17T02:34:25;10.85;;;5.90;;
54821;SDS011;41299;43.546;16.426;2022-09-17T02:36:53;8.68;;;5.00;;
54821;SDS011;41299;43.546;16.426;2022-09-17T02:39:19;9.70;;;5.35;;
54821;SDS011;41299;43.546;16.426;2022-09-17T02:42:34;8.93;;;5.35;;
54821;SDS011;41299;43.546;16.426;2022-09-17T02:50:01;5.88;;;3.90;;
54821;SDS011;41299;43.546;16.426;2022-09-17T02:52:53;10.05;;;4.55;;
54821;SDS011;41299;43.546;16.426;2022-09-17T02:55:25;6.97;;;4.00;;
54821;SDS011;41299;43.546;16.426;2022-09-17T03:00:41;8.45;;;3.60;;
54821;SDS011;41299;43.546;16.426;2022-09-17T03:03:09;8.73;;;3.95;;
54821;SDS011;41299;43.546;16.426;2022-09-17T03:05:40;10.07;;;4.90;;
54821;SDS011;41299;43.546;16.426;2022-09-17T03:08:08;7.20;;;3.92;;
54821;SDS011;41299;43.546;16.426;2022-09-17T03:10:36;8.95;;;4.10;;
54821;SDS011;41299;43.546;16.426;2022-09-17T03:13:02;10.15;;;4.20;;
54821;SDS011;41299;43.546;16.426;2022-09-17T03:15:28;10.23;;;4.75;;
54821;SDS011;41299;43.546;16.426;2022-09-17T03:17:53;7.32;;;3.67;;
54821;SDS011;41299;43.546;16.426;2022-09-17T03:20:19;7.25;;;4.35;;
54821;SDS011;41299;43.546;16.426;2022-09-17T03:22:44;8.95;;;4.55;;
54821;SDS011;41299;43.546;16.426;2022-09-17T03:25:10;7.93;;;3.42;;
54821;SDS011;41299;43.546;16.426;2022-09-17T03:27:35;7.35;;;3.53;;
54821;SDS011;41299;43.546;16.426;2022-09-17T03:30:01;5.93;;;2.88;;
54821;SDS011;41299;43.546;16.426;2022-09-17T03:32:26;5.53;;;2.90;;
54821;SDS011;41299;43.546;16.426;2022-09-17T03:34:51;5.45;;;2.80;;
54821;SDS011;41299;43.546;16.426;2022-09-17T03:37:18;6.50;;;2.92;;
54821;SDS011;41299;43.546;16.426;2022-09-17T03:39:44;4.93;;;2.75;;
54821;SDS011;41299;43.546;16.426;2022-09-17T03:42:09;7.35;;;2.95;;
54821;SDS011;41299;43.546;16.426;2022-09-17T03:44:35;9.98;;;3.33;;
54821;SDS011;41299;43.546;16.426;2022-09-17T03:47:00;6.68;;;3.03;;
54821;SDS011;41299;43.546;16.426;2022-09-17T03:49:25;7.07;;;2.58;;
54821;SDS011;41299;43.546;16.426;2022-09-17T03:51:51;7.15;;;3.00;;
54821;SDS011;41299;43.546;16.426;2022-09-17T03:54:16;7.50;;;3.00;;
54821;SDS011;41299;43.546;16.426;2022-09-17T03:56:42;8.10;;;3.70;;
54821;SDS011;41299;43.546;16.426;2022-09-17T03:59:07;8.98;;;3.90;;
54821;SDS011;41299;43.546;16.426;2022-09-17T04:01:33;7.57;;;3.88;;
54821;SDS011;41299;43.546;16.426;2022-09-17T04:03:58;10.52;;;4.43;;
54821;SDS011;41299;43.546;16.426;2022-09-17T04:06:24;9.52;;;3.88;;
54821;SDS011;41299;43.546;16.426;2022-09-17T04:08:49;8.65;;;3.88;;
54821;SDS011;41299;43.546;16.426;2022-09-17T04:11:15;10.52;;;4.53;;
54821;SDS011;41299;43.546;16.426;2022-09-17T04:13:41;11.73;;;4.03;;
54821;SDS011;41299;43.546;16.426;2022-09-17T04:16:06;6.07;;;3.78;;
54821;SDS011;41299;43.546;16.426;2022-09-17T04:18:31;10.52;;;4.00;;
54821;SDS011;41299;43.546;16.426;2022-09-17T04:20:57;8.05;;;3.80;;
54821;SDS011;41299;43.546;16.426;2022-09-17T04:23:23;10.77;;;3.50;;
54821;SDS011;41299;43.546;16.426;2022-09-17T04:25:48;9.27;;;3.63;;
54821;SDS011;41299;43.546;16.426;2022-09-17T04:28:14;7.00;;;3.33;;
54821;SDS011;41299;43.546;16.426;2022-09-17T04:30:39;9.82;;;4.28;;
54821;SDS011;41299;43.546;16.426;2022-09-17T04:33:06;6.30;;;3.28;;
54821;SDS011;41299;43.546;16.426;2022-09-17T04:35:33;5.13;;;2.97;;
54821;SDS011;41299;43.546;16.426;2022-09-17T04:37:58;6.20;;;3.30;;
54821;SDS011;41299;43.546;16.426;2022-09-17T04:40:24;9.93;;;3.22;;
54821;SDS011;41299;43.546;16.426;2022-09-17T04:42:51;8.88;;;3.20;;
54821;SDS011;41299;43.546;16.426;2022-09-17T04:45:18;7.18;;;2.95;;
54821;SDS011;41299;43.546;16.426;2022-09-17T04:47:43;6.60;;;3.30;;
54821;SDS011;41299;43.546;16.426;2022-09-17T04:50:09;4.50;;;2.95;;
54821;SDS011;41299;43.546;16.426;2022-09-17T04:52:35;6.78;;;3.22;;
54821;SDS011;41299;43.546;16.426;2022-09-17T04:55:00;8.40;;;3.63;;
54821;SDS011;41299;43.546;16.426;2022-09-17T04:57:26;8.57;;;3.25;;
54821;SDS011;41299;43.546;16.426;2022-09-17T04:59:51;7.55;;;3.17;;
54821;SDS011;41299;43.546;16.426;2022-09-17T05:02:17;8.27;;;3.50;;
54821;SDS011;41299;43.546;16.426;2022-09-17T05:04:43;10.38;;;3.50;;
54821;SDS011;41299;43.546;16.426;2022-09-17T05:07:08;6.85;;;2.78;;
54821;SDS011;41299;43.546;16.426;2022-09-17T05:09:34;9.63;;;3.10;;
54821;SDS011;41299;43.546;16.426;2022-09-17T05:11:59;8.68;;;3.30;;
54821;SDS011;41299;43.546;16.426;2022-09-17T05:14:24;5.88;;;2.45;;
54821;SDS011;41299;43.546;16.426;2022-09-17T05:16:50;6.10;;;2.72;;
54821;SDS011;41299;43.546;16.426;2022-09-17T05:19:15;8.43;;;3.65;;
54821;SDS011;41299;43.546;16.426;2022-09-17T05:21:41;6.30;;;3.28;;
54821;SDS011;41299;43.546;16.426;2022-09-17T05:24:06;9.45;;;4.30;;
54821;SDS011;41299;43.546;16.426;2022-09-17T05:26:32;6.30;;;3.92;;
54821;SDS011;41299;43.546;16.426;2022-09-17T05:28:58;9.23;;;4.25;;
54821;SDS011;41299;43.546;16.426;2022-09-17T05:31:23;10.20;;;4.00;;
54821;SDS011;41299;43.546;16.426;2022-09-17T05:33:49;9.13;;;4.03;;
54821;SDS011;41299;43.546;16.426;2022-09-17T05:36:14;10.85;;;3.92;;
54821;SDS011;41299;43.546;16.426;2022-09-17T05:38:39;9.23;;;3.90;;
54821;SDS011;41299;43.546;16.426;2022-09-17T05:41:05;8.27;;;3.03;;
54821;SDS011;41299;43.546;16.426;2022-09-17T05:43:31;10.20;;;3.60;;
54821;SDS011;41299;43.546;16.426;2022-09-17T05:46:03;7.88;;;3.50;;
54821;SDS011;41299;43.546;16.426;2022-09-17T05:48:30;8.30;;;3.08;;
54821;SDS011;41299;43.546;16.426;2022-09-17T05:50:56;5.10;;;2.70;;
54821;SDS011;41299;43.546;16.426;2022-09-17T05:53:21;5.78;;;2.80;;
54821;SDS011;41299;43.546;16.426;2022-09-17T05:55:47;6.03;;;3.22;;
54821;SDS011;41299;43.546;16.426;2022-09-17T05:58:14;7.05;;;2.72;;
54821;SDS011;41299;43.546;16.426;2022-09-17T06:00:42;8.05;;;3.92;;
54821;SDS011;41299;43.546;16.426;2022-09-17T06:03:10;6.15;;;2.60;;
54821;SDS011;41299;43.546;16.426;2022-09-17T06:05:37;6.53;;;2.53;;
54821;SDS011;41299;43.546;16.426;2022-09-17T06:08:02;5.50;;;2.50;;
54821;SDS011;41299;43.546;16.426;2022-09-17T06:10:27;7.40;;;2.75;;
54821;SDS011;41299;43.546;16.426;2022-09-17T06:12:56;5.20;;;1.88;;
54821;SDS011;41299;43.546;16.426;2022-09-17T06:15:23;4.82;;;2.58;;
54821;SDS011;41299;43.546;16.426;2022-09-17T06:17:49;8.82;;;3.10;;
54821;SDS011;41299;43.546;16.426;2022-09-17T06:20:15;6.85;;;2.88;;
54821;SDS011;41299;43.546;16.426;2022-09-17T06:22:40;7.38;;;3.42;;
54821;SDS011;41299;43.546;16.426;2022-09-17T06:25:07;8.52;;;3.65;;
54821;SDS011;41299;43.546;16.426;2022-09-17T06:27:33;8.60;;;3.22;;
54821;SDS011;41299;43.546;16.426;2022-09-17T06:29:59;7.30;;;3.35;;
54821;SDS011;41299;43.546;16.426;2022-09-17T06:32:25;6.05;;;2.90;;
54821;SDS011;41299;43.546;16.426;2022-09-17T06:34:51;7.97;;;2.70;;
54821;SDS011;41299;43.546;16.426;2022-09-17T06:37:17;8.15;;;2.83;;
54821;SDS011;41299;43.546;16.426;2022-09-17T06:39:42;7.07;;;2.67;;
54821;SDS011;41299;43.546;16.426;2022-09-17T06:42:09;9.23;;;3.22;;
54821;SDS011;41299;43.546;16.426;2022-09-17T06:44:36;9.55;;;2.95;;
54821;SDS011;41299;43.546;16.426;2022-09-17T06:47:02;10.02;;;2.90;;
54821;SDS011;41299;43.546;16.426;2022-09-17T06:49:28;9.32;;;3.17;;
54821;SDS011;41299;43.546;16.426;2022-09-17T06:51:55;12.55;;;3.15;;
54821;SDS011;41299;43.546;16.426;2022-09-17T06:54:20;8.20;;;2.50;;
54821;SDS011;41299;43.546;16.426;2022-09-17T06:56:46;9.00;;;3.03;;
54821;SDS011;41299;43.546;16.426;2022-09-17T06:59:11;8.73;;;2.55;;
54821;SDS011;41299;43.546;16.426;2022-09-17T07:01:37;8.13;;;3.00;;
54821;SDS011;41299;43.546;16.426;2022-09-17T07:04:02;6.25;;;2.60;;
54821;SDS011;41299;43.546;16.426;2022-09-17T07:06:27;8.70;;;2.17;;
54821;SDS011;41299;43.546;16.426;2022-09-17T07:08:53;6.20;;;2.53;;
54821;SDS011;41299;43.546;16.426;2022-09-17T07:11:18;5.45;;;1.65;;
54821;SDS011;41299;43.546;16.426;2022-09-17T07:13:44;4.78;;;1.70;;
54821;SDS011;41299;43.546;16.426;2022-09-17T07:16:09;7.97;;;1.67;;
54821;SDS011;41299;43.546;16.426;2022-09-17T07:18:35;4.18;;;1.35;;
54821;SDS011;41299;43.546;16.426;2022-09-17T07:21:02;3.78;;;1.13;;
54821;SDS011;41299;43.546;16.426;2022-09-17T07:23:29;3.10;;;1.00;;
54821;SDS011;41299;43.546;16.426;2022-09-17T07:25:58;3.90;;;1.55;;
54821;SDS011;41299;43.546;16.426;2022-09-17T07:28:25;4.55;;;1.15;;
54821;SDS011;41299;43.546;16.426;2022-09-17T07:30:51;4.50;;;1.50;;
54821;SDS011;41299;43.546;16.426;2022-09-17T07:33:18;6.20;;;3.13;;
54821;SDS011;41299;43.546;16.426;2022-09-17T07:38:23;7.80;;;1.33;;
54821;SDS011;41299;43.546;16.426;2022-09-17T07:43:22;4.22;;;1.05;;
54821;SDS011;41299;43.546;16.426;2022-09-17T07:45:48;2.47;;;0.98;;
54821;SDS011;41299;43.546;16.426;2022-09-17T07:48:13;6.00;;;1.00;;
54821;SDS011;41299;43.546;16.426;2022-09-17T07:50:38;3.55;;;0.98;;
54821;SDS011;41299;43.546;16.426;2022-09-17T07:53:04;3.30;;;0.88;;
54821;SDS011;41299;43.546;16.426;2022-09-17T07:55:30;5.10;;;1.25;;
54821;SDS011;41299;43.546;16.426;2022-09-17T07:57:55;6.65;;;1.25;;
54821;SDS011;41299;43.546;16.426;2022-09-17T08:00:21;5.43;;;1.05;;
54821;SDS011;41299;43.546;16.426;2022-09-17T08:02:51;4.10;;;1.30;;
54821;SDS011;41299;43.546;16.426;2022-09-17T08:05:20;6.50;;;1.15;;
54821;SDS011;41299;43.546;16.426;2022-09-17T08:07:49;3.45;;;1.10;;
54821;SDS011;41299;43.546;16.426;2022-09-17T08:10:16;5.68;;;1.10;;
54821;SDS011;41299;43.546;16.426;2022-09-17T08:12:45;3.92;;;1.00;;
54821;SDS011;41299;43.546;16.426;2022-09-17T08:15:15;6.10;;;0.85;;
54821;SDS011;41299;43.546;16.426;2022-09-17T08:17:42;5.28;;;1.10;;
54821;SDS011;41299;43.546;16.426;2022-09-17T08:20:11;6.15;;;1.27;;
54821;SDS011;41299;43.546;16.426;2022-09-17T08:22:39;4.07;;;1.42;;
54821;SDS011;41299;43.546;16.426;2022-09-17T08:25:06;5.82;;;0.80;;
54821;SDS011;41299;43.546;16.426;2022-09-17T08:27:33;3.45;;;0.90;;
54821;SDS011;41299;43.546;16.426;2022-09-17T08:29:59;4.20;;;0.88;;
54821;SDS011;41299;43.546;16.426;2022-09-17T08:32:24;3.38;;;0.75;;
54821;SDS011;41299;43.546;16.426;2022-09-17T08:34:50;3.30;;;0.65;;
54821;SDS011;41299;43.546;16.426;2022-09-17T08:37:18;4.15;;;0.65;;
54821;SDS011;41299;43.546;16.426;2022-09-17T08:39:44;2.92;;;0.80;;
54821;SDS011;41299;43.546;16.426;2022-09-17T08:45:01;5.15;;;0.57;;
54821;SDS011;41299;43.546;16.426;2022-09-17T08:47:39;3.85;;;0.80;;
54821;SDS011;41299;43.546;16.426;2022-09-17T08:55:45;4.20;;;0.70;;
54821;SDS011;41299;43.546;16.426;2022-09-17T09:04:10;3.70;;;0.90;;
54821;SDS011;41299;43.546;16.426;2022-09-17T09:06:46;4.95;;;0.95;;
54821;SDS011;41299;43.546;16.426;2022-09-17T09:09:16;3.85;;;0.60;;
54821;SDS011;41299;43.546;16.426;2022-09-17T09:11:45;3.38;;;0.65;;
54821;SDS011;41299;43.546;16.426;2022-09-17T09:14:30;5.40;;;1.13;;
54821;SDS011;41299;43.546;16.426;2022-09-17T09:17:04;3.40;;;0.73;;
54821;SDS011;41299;43.546;16.426;2022-09-17T09:19:39;3.85;;;0.80;;
54821;SDS011;41299;43.546;16.426;2022-09-17T09:29:53;2.58;;;0.60;;
54821;SDS011;41299;43.546;16.426;2022-09-17T09:35:28;3.55;;;1.05;;
54821;SDS011;41299;43.546;16.426;2022-09-17T09:43:15;4.22;;;0.88;;
54821;SDS011;41299;43.546;16.426;2022-09-17T09:53:55;3.65;;;0.80;;
54821;SDS011;41299;43.546;16.426;2022-09-17T09:58:59;3.60;;;0.88;;
54821;SDS011;41299;43.546;16.426;2022-09-17T10:01:25;6.00;;;1.17;;
54821;SDS011;41299;43.546;16.426;2022-09-17T10:03:52;1.98;;;0.40;;
54821;SDS011;41299;43.546;16.426;2022-09-17T10:06:22;2.10;;;0.65;;
54821;SDS011;41299;43.546;16.426;2022-09-17T10:11:20;4.97;;;1.02;;
54821;SDS011;41299;43.546;16.426;2022-09-17T10:13:48;4.88;;;0.90;;
54821;SDS011;41299;43.546;16.426;2022-09-17T10:16:18;5.43;;;1.10;;
54821;SDS011;41299;43.546;16.426;2022-09-17T10:18:45;2.50;;;0.88;;
54821;SDS011;41299;43.546;16.426;2022-09-17T10:21:25;4.93;;;0.80;;
54821;SDS011;41299;43.546;16.426;2022-09-17T10:24:21;3.50;;;0.75;;
54821;SDS011;41299;43.546;16.426;2022-09-17T10:26:52;7.90;;;0.73;;
54821;SDS011;41299;43.546;16.426;2022-09-17T10:29:29;3.17;;;0.70;;
54821;SDS011;41299;43.546;16.426;2022-09-17T10:31:56;2.63;;;0.93;;
54821;SDS011;41299;43.546;16.426;2022-09-17T10:34:32;4.13;;;1.05;;
54821;SDS011;41299;43.546;16.426;2022-09-17T10:36:58;3.40;;;0.95;;
54821;SDS011;41299;43.546;16.426;2022-09-17T10:42:11;3.72;;;0.70;;
54821;SDS011;41299;43.546;16.426;2022-09-17T10:44:50;2.60;;;0.70;;
54821;SDS011;41299;43.546;16.426;2022-09-17T10:47:39;4.90;;;0.85;;
54821;SDS011;41299;43.546;16.426;2022-09-17T10:50:18;4.13;;;1.13;;
54821;SDS011;41299;43.546;16.426;2022-09-17T10:52:51;2.75;;;0.63;;
54821;SDS011;41299;43.546;16.426;2022-09-17T11:00:57;3.47;;;0.80;;
54821;SDS011;41299;43.546;16.426;2022-09-17T11:39:26;3.72;;;0.60;;
54821;SDS011;41299;43.546;16.426;2022-09-17T11:41:59;2.63;;;0.70;;
54821;SDS011;41299;43.546;16.426;2022-09-17T11:44:30;2.92;;;0.80;;
54821;SDS011;41299;43.546;16.426;2022-09-17T11:49:55;3.65;;;1.13;;
54821;SDS011;41299;43.546;16.426;2022-09-17T11:57:36;3.45;;;0.80;;
54821;SDS011;41299;43.546;16.426;2022-09-17T12:00:11;5.13;;;1.30;;
54821;SDS011;41299;43.546;16.426;2022-09-17T12:02:51;4.45;;;1.13;;
54821;SDS011;41299;43.546;16.426;2022-09-17T12:13:49;2.53;;;0.80;;
54821;SDS011;41299;43.546;16.426;2022-09-17T12:16:30;3.20;;;0.93;;
54821;SDS011;41299;43.546;16.426;2022-09-17T12:21:46;4.10;;;1.75;;
54821;SDS011;41299;43.546;16.426;2022-09-17T12:24:25;7.13;;;1.77;;
54821;SDS011;41299;43.546;16.426;2022-09-17T13:00:05;5.78;;;1.40;;
54821;SDS011;41299;43.546;16.426;2022-09-17T13:21:37;4.68;;;2.00;;
54821;SDS011;41299;43.546;16.426;2022-09-17T13:24:17;7.43;;;1.92;;
54821;SDS011;41299;43.546;16.426;2022-09-17T13:26:46;5.03;;;1.63;;
54821;SDS011;41299;43.546;16.426;2022-09-17T13:29:38;4.93;;;1.30;;
54821;SDS011;41299;43.546;16.426;2022-09-17T13:34:56;4.93;;;1.40;;
54821;SDS011;41299;43.546;16.426;2022-09-17T13:37:28;3.22;;;1.42;;
54821;SDS011;41299;43.546;16.426;2022-09-17T13:39:54;4.80;;;1.20;;
54821;SDS011;41299;43.546;16.426;2022-09-17T13:42:29;4.35;;;1.00;;
54821;SDS011;41299;43.546;16.426;2022-09-17T13:45:08;3.38;;;1.13;;
54821;SDS011;41299;43.546;16.426;2022-09-17T13:50:23;7.03;;;2.78;;
54821;SDS011;41299;43.546;16.426;2022-09-17T13:52:49;5.13;;;1.50;;
54821;SDS011;41299;43.546;16.426;2022-09-17T14:05:52;4.25;;;1.55;;
54821;SDS011;41299;43.546;16.426;2022-09-17T14:13:45;4.45;;;1.42;;
54821;SDS011;41299;43.546;16.426;2022-09-17T14:21:27;3.78;;;0.80;;
54821;SDS011;41299;43.546;16.426;2022-09-17T14:23:56;2.42;;;0.70;;
54821;SDS011;41299;43.546;16.426;2022-09-17T14:29:04;2.83;;;0.82;;
54821;SDS011;41299;43.546;16.426;2022-09-17T14:31:48;2.45;;;0.50;;
54821;SDS011;41299;43.546;16.426;2022-09-17T14:34:17;2.70;;;0.60;;
54821;SDS011;41299;43.546;16.426;2022-09-17T14:36:45;2.58;;;0.73;;
54821;SDS011;41299;43.546;16.426;2022-09-17T14:39:26;1.92;;;0.20;;
54821;SDS011;41299;43.546;16.426;2022-09-17T14:41:59;0.90;;;0.20;;
54821;SDS011;41299;43.546;16.426;2022-09-17T14:44:25;1.65;;;0.20;;
54821;SDS011;41299;43.546;16.426;2022-09-17T14:49:35;2.22;;;0.38;;
54821;SDS011;41299;43.546;16.426;2022-09-17T14:52:18;0.83;;;0.17;;
54821;SDS011;41299;43.546;16.426;2022-09-17T14:55:04;1.63;;;0.10;;
54821;SDS011;41299;43.546;16.426;2022-09-17T14:57:56;0.70;;;0.10;;
54821;SDS011;41299;43.546;16.426;2022-09-17T15:00:31;1.33;;;0.17;;
54821;SDS011;41299;43.546;16.426;2022-09-17T15:02:59;1.02;;;0.20;;
54821;SDS011;41299;43.546;16.426;2022-09-17T15:08:06;1.85;;;0.22;;
54821;SDS011;41299;43.546;16.426;2022-09-17T15:10:35;0.77;;;0.30;;
54821;SDS011;41299;43.546;16.426;2022-09-17T15:13:16;1.30;;;0.30;;
54821;SDS011;41299;43.546;16.426;2022-09-17T15:15:58;0.85;;;0.10;;
54821;SDS011;41299;43.546;16.426;2022-09-17T15:18:53;1.55;;;0.30;;
54821;SDS011;41299;43.546;16.426;2022-09-17T15:21:33;0.88;;;0.30;;
54821;SDS011;41299;43.546;16.426;2022-09-17T15:26:34;1.13;;;0.30;;
54821;SDS011;41299;43.546;16.426;2022-09-17T15:29:04;0.97;;;0.23;;
54821;SDS011;41299;43.546;16.426;2022-09-17T15:31:30;1.13;;;0.63;;
54821;SDS011;41299;43.546;16.426;2022-09-17T15:33:57;1.73;;;0.50;;
54821;SDS011;41299;43.546;16.426;2022-09-17T15:36:25;2.65;;;0.70;;
54821;SDS011;41299;43.546;16.426;2022-09-17T15:38:51;3.55;;;0.63;;
54821;SDS011;41299;43.546;16.426;2022-09-17T15:43:43;1.80;;;0.40;;
54821;SDS011;41299;43.546;16.426;2022-09-17T15:46:29;6.38;;;3.20;;
54821;SDS011;41299;43.546;16.426;2022-09-17T15:49:02;3.65;;;1.30;;
54821;SDS011;41299;43.546;16.426;2022-09-17T15:53:59;3.97;;;0.70;;
54821;SDS011;41299;43.546;16.426;2022-09-17T15:56:29;1.45;;;0.47;;
54821;SDS011;41299;43.546;16.426;2022-09-17T15:59:04;0.77;;;0.30;;
54821;SDS011;41299;43.546;16.426;2022-09-17T16:01:51;2.50;;;0.40;;
54821;SDS011;41299;43.546;16.426;2022-09-17T16:12:23;1.65;;;0.30;;
54821;SDS011;41299;43.546;16.426;2022-09-17T16:14:54;1.77;;;0.52;;
54821;SDS011;41299;43.546;16.426;2022-09-17T16:19:57;2.08;;;0.10;;
54821;SDS011;41299;43.546;16.426;2022-09-17T16:22:24;0.50;;;0.10;;
54821;SDS011;41299;43.546;16.426;2022-09-17T16:24:50;1.17;;;0.15;;
54821;SDS011;41299;43.546;16.426;2022-09-17T16:27:18;1.02;;;0.32;;
54821;SDS011;41299;43.546;16.426;2022-09-17T16:29:46;0.73;;;0.22;;
